createdAt,value
2022-08-05T00:00:00.593Z,19.0
2022-08-05T00:10:00.248Z,18.8
2022-08-05T00:20:02.334Z,18.8
2022-08-05T00:30:00.525Z,18.8
2022-08-05T00:40:00.288Z,18.7
2022-08-05T00:50:00.227Z,18.6
2022-08-05T01:00:00.268Z,18.6
2022-08-05T01:10:00.291Z,18.4
2022-08-05T01:20:02.520Z,18.3
2022-08-05T01:30:00.237Z,18.2
2022-08-05T01:40:00.261Z,18.2
2022-08-05T01:50:02.344Z,18.2
2022-08-05T02:00:00.222Z,18.1
2022-08-05T02:10:00.328Z,18.1
2022-08-05T02:20:00.296Z,18.0
2022-08-05T02:30:00.831Z,17.8
2022-08-05T02:40:00.216Z,17.8
2022-08-05T02:50:00.202Z,17.8
2022-08-05T03:00:00.213Z,17.7
2022-08-05T03:10:00.238Z,17.6
2022-08-05T03:20:00.266Z,17.6
2022-08-05T03:30:07.968Z,17.5
2022-08-05T03:40:01.330Z,17.4
2022-08-05T03:50:00.244Z,17.4
2022-08-05T04:00:00.253Z,17.3
2022-08-05T04:10:01.773Z,17.2
2022-08-05T04:20:00.243Z,17.2
2022-08-05T04:30:03.638Z,17.1
2022-08-05T04:40:00.251Z,17.2
2022-08-05T04:50:02.305Z,17.3
2022-08-05T05:00:00.242Z,17.5
2022-08-05T05:10:02.064Z,17.8
2022-08-05T05:20:00.237Z,18.2
2022-08-05T05:30:03.655Z,18.5
2022-08-05T05:40:00.214Z,19.0
2022-08-05T05:50:01.363Z,19.6
2022-08-05T06:00:00.227Z,20.4
2022-08-05T06:10:03.458Z,21.2
2022-08-05T06:20:00.239Z,21.8
2022-08-05T06:30:04.074Z,22.6
2022-08-05T06:40:00.241Z,23.3
2022-08-05T06:50:02.394Z,24.1
2022-08-05T07:00:00.236Z,24.9
2022-08-05T07:10:00.241Z,25.8
2022-08-05T07:30:22.604Z,27.0
2022-08-05T07:40:04.840Z,27.4
2022-08-05T07:50:00.225Z,28.1
2022-08-05T08:00:00.328Z,28.5
2022-08-05T08:10:00.236Z,29.2
2022-08-05T08:20:10.616Z,29.5
2022-08-05T08:30:04.834Z,29.9
2022-08-05T08:40:00.371Z,30.4
2022-08-05T08:50:05.513Z,30.7
2022-08-05T09:00:00.254Z,31.0
2022-08-05T09:10:00.229Z,31.2
2022-08-05T09:20:02.030Z,31.4
2022-08-05T09:30:03.373Z,31.5
2022-08-05T09:40:00.292Z,31.7
2022-08-05T09:50:01.846Z,32.0
2022-08-05T10:00:02.699Z,32.2
2022-08-05T10:50:20.397Z,33.0
2022-08-05T11:10:03.921Z,33.1
2022-08-05T11:20:09.570Z,33.2
2022-08-05T11:30:00.276Z,33.3
2022-08-05T11:50:00.292Z,33.4
2022-08-05T12:00:00.232Z,33.4
2022-08-05T12:10:04.466Z,33.6
2022-08-05T12:20:17.601Z,33.5
2022-08-05T12:30:00.253Z,33.4
2022-08-05T12:40:03.427Z,33.3
2022-08-05T12:50:02.880Z,33.4
2022-08-05T13:00:10.367Z,33.6
2022-08-05T13:10:00.239Z,33.6
2022-08-05T13:20:00.240Z,33.7
2022-08-05T13:30:32.340Z,33.8
2022-08-05T13:40:13.254Z,33.8
2022-08-05T13:50:00.277Z,33.8
2022-08-05T14:00:01.968Z,33.9
2022-08-05T14:10:00.231Z,33.9
2022-08-05T14:20:03.999Z,33.9
2022-08-05T14:30:00.231Z,33.8
2022-08-05T14:40:00.347Z,33.4
2022-08-05T14:50:04.839Z,33.0
2022-08-05T15:00:00.227Z,32.6
2022-08-05T15:10:01.303Z,32.1
2022-08-05T15:20:00.229Z,31.6
2022-08-05T15:30:00.207Z,31.2
2022-08-05T15:40:42.403Z,30.8
2022-08-05T15:50:00.391Z,30.5
2022-08-05T16:00:00.216Z,30.3
2022-08-05T16:10:00.229Z,30.0
2022-08-05T16:20:03.913Z,29.6
2022-08-05T16:30:00.247Z,29.4
2022-08-05T16:40:04.384Z,29.2
2022-08-05T16:50:00.295Z,29.0
2022-08-05T17:00:04.499Z,28.9
2022-08-05T17:10:00.296Z,28.8
2022-08-05T17:20:00.403Z,28.6
2022-08-05T17:30:00.788Z,28.4
2022-08-05T17:40:00.610Z,28.1
2022-08-05T17:50:04.398Z,27.9
2022-08-05T18:00:03.161Z,27.8
2022-08-05T18:10:01.971Z,27.5
2022-08-05T18:20:00.433Z,27.3
2022-08-05T18:30:00.244Z,27.1
2022-08-05T18:40:29.776Z,26.9
2022-08-05T18:50:00.521Z,26.6
2022-08-05T19:00:01.909Z,26.3
2022-08-05T19:10:00.252Z,26.1
2022-08-05T19:20:00.239Z,25.8
2022-08-05T19:30:00.235Z,25.6
2022-08-05T19:40:00.444Z,25.4
2022-08-05T19:50:00.305Z,25.3
2022-08-05T20:00:02.330Z,25.2
2022-08-05T20:10:00.237Z,25.0
2022-08-05T20:20:00.244Z,24.8
2022-08-05T20:30:00.264Z,24.7
2022-08-05T20:40:00.414Z,24.6
2022-08-05T20:50:01.908Z,24.4
2022-08-05T21:00:10.812Z,24.2
2022-08-05T21:10:00.235Z,24.0
2022-08-05T21:20:03.067Z,23.8
2022-08-05T21:30:01.893Z,23.6
2022-08-05T21:40:00.232Z,23.4
2022-08-05T21:50:01.382Z,23.1
2022-08-05T22:00:05.686Z,23.0
2022-08-05T22:10:00.286Z,22.8
2022-08-05T22:20:11.182Z,22.7
2022-08-05T22:30:00.281Z,22.6
2022-08-05T22:40:00.354Z,22.4
2022-08-05T22:50:18.660Z,22.2
2022-08-05T23:00:00.227Z,22.1
2022-08-05T23:10:01.875Z,21.9
2022-08-05T23:20:00.230Z,21.8
2022-08-05T23:30:00.253Z,21.6
2022-08-05T23:40:00.372Z,21.4
2022-08-05T23:50:00.272Z,21.3
